Time;durP1;ratioP1;P1;durP2;ratioP2;P2;SDS_P1;SDS_P2;PMS_P1;PMS_P2;Temp;Humidity;BMP_temperature;BMP_pressure;BME280_temperature;BME280_humidity;BME280_pressure;Samples;Min_cycle;Max_cycle;Signal;HPM_P1;HPM_P2
2021/10/29 00:01:16;;;;;;;23.60;20.00;;;12.80;99.90;;;;;;5094590;28;20708;-67
2021/10/29 00:03:43;;;;;;;20.58;18.48;;;12.70;99.90;;;;;;5094892;28;20227;-67
2021/10/29 00:06:11;;;;;;;27.15;21.77;;;12.70;99.90;;;;;;5094781;28;20230;-66
2021/10/29 00:08:38;;;;;;;23.40;20.80;;;12.60;99.90;;;;;;5093959;28;20219;-67
2021/10/29 00:11:05;;;;;;;25.70;22.98;;;12.60;99.90;;;;;;5095064;28;20569;-67
2021/10/29 00:13:32;;;;;;;23.33;20.90;;;12.50;99.90;;;;;;5094141;28;20238;-67
2021/10/29 00:15:59;;;;;;;30.52;23.67;;;12.50;99.90;;;;;;5091661;28;20234;-66
2021/10/29 00:18:30;;;;;;;27.73;24.73;;;12.40;99.90;;;;;;5094218;28;20215;-67
2021/10/29 00:20:58;;;;;;;29.95;24.80;;;12.40;99.90;;;;;;5094473;28;20218;-67
2021/10/29 00:23:27;;;;;;;27.90;24.73;;;12.30;99.90;;;;;;5093950;28;20250;-67
2021/10/29 00:25:55;;;;;;;24.10;21.65;;;12.30;99.90;;;;;;5094361;28;20231;-66
2021/10/29 00:28:22;;;;;;;25.42;22.63;;;12.30;99.90;;;;;;5093747;28;20307;-67
2021/10/29 00:30:49;;;;;;;27.63;23.73;;;12.30;99.90;;;;;;5094036;28;20231;-66
2021/10/29 00:33:16;;;;;;;33.17;26.35;;;12.20;99.90;;;;;;5088152;28;20678;-67
2021/10/29 00:35:43;;;;;;;26.75;23.13;;;12.20;99.90;;;;;;5093746;28;20744;-66
2021/10/29 00:38:10;;;;;;;25.38;22.67;;;12.20;99.90;;;;;;5094303;28;20216;-67
2021/10/29 00:40:39;;;;;;;28.27;22.45;;;12.20;99.90;;;;;;5093487;28;20676;-67
2021/10/29 00:43:07;;;;;;;26.00;21.15;;;12.20;99.90;;;;;;5092878;28;20251;-67
2021/10/29 00:45:34;;;;;;;26.80;23.33;;;12.20;99.90;;;;;;5093778;28;20246;-65
2021/10/29 00:48:01;;;;;;;24.90;22.33;;;12.10;99.90;;;;;;5094178;28;20238;-66
2021/10/29 00:50:28;;;;;;;23.08;20.55;;;12.10;99.90;;;;;;5093223;28;20227;-65
2021/10/29 00:52:55;;;;;;;29.83;24.63;;;12.10;99.90;;;;;;5094176;28;20227;-67
2021/10/29 00:55:22;;;;;;;23.48;21.05;;;12.00;99.90;;;;;;5093426;28;20568;-67
2021/10/29 00:57:51;;;;;;;25.27;22.58;;;12.10;99.90;;;;;;5093861;28;20231;-67
2021/10/29 01:00:19;;;;;;;26.67;21.65;;;12.10;99.90;;;;;;5091637;28;20538;-67
2021/10/29 01:02:46;;;;;;;25.88;21.52;;;12.10;99.90;;;;;;5093867;28;20230;-66
2021/10/29 01:05:13;;;;;;;29.98;25.88;;;12.10;99.90;;;;;;5092968;28;20727;-67
2021/10/29 01:07:40;;;;;;;29.02;22.98;;;12.00;99.90;;;;;;5093104;28;20227;-65
2021/10/29 01:10:08;;;;;;;28.70;24.27;;;11.90;99.90;;;;;;5092989;28;20227;-67
2021/10/29 01:12:35;;;;;;;26.63;23.65;;;11.90;99.90;;;;;;5093213;28;20297;-66
2021/10/29 01:15:04;;;;;;;25.60;22.60;;;11.80;99.90;;;;;;5090581;28;20682;-67
2021/10/29 01:17:32;;;;;;;28.05;23.98;;;11.70;99.90;;;;;;5092697;28;20223;-66
2021/10/29 01:19:59;;;;;;;27.98;22.60;;;11.70;99.90;;;;;;5093585;28;20595;-66
2021/10/29 01:22:28;;;;;;;28.05;23.98;;;11.70;99.90;;;;;;5087585;28;20224;-66
2021/10/29 01:24:56;;;;;;;30.58;23.83;;;11.60;99.90;;;;;;5093331;28;20235;-66
2021/10/29 01:27:23;;;;;;;29.17;24.13;;;11.60;99.90;;;;;;5092070;28;20220;-66
2021/10/29 01:29:51;;;;;;;26.40;21.92;;;11.50;99.90;;;;;;5093291;28;20235;-65
2021/10/29 01:32:19;;;;;;;26.60;21.33;;;11.50;99.90;;;;;;5087721;28;20232;-67
2021/10/29 01:34:46;;;;;;;29.73;23.70;;;11.50;99.90;;;;;;5092943;28;20990;-65
2021/10/29 01:37:15;;;;;;;29.60;23.70;;;11.50;99.90;;;;;;5093328;28;20250;-66
2021/10/29 01:39:44;;;;;;;24.65;22.10;;;11.40;99.90;;;;;;5092452;28;24779;-67
2021/10/29 01:42:11;;;;;;;26.23;23.42;;;11.50;99.90;;;;;;5091825;28;20223;-66
2021/10/29 01:44:39;;;;;;;23.20;20.73;;;11.50;99.90;;;;;;5092419;28;20591;-67
2021/10/29 01:47:06;;;;;;;29.00;24.60;;;11.50;99.90;;;;;;5093076;28;20316;-67
2021/10/29 01:49:33;;;;;;;27.77;23.55;;;11.50;99.90;;;;;;5092173;28;20238;-66
2021/10/29 01:52:01;;;;;;;27.35;23.30;;;11.50;99.90;;;;;;5093001;28;20931;-66
2021/10/29 01:54:28;;;;;;;29.98;24.30;;;11.50;99.90;;;;;;5092407;28;20230;-66
2021/10/29 01:56:56;;;;;;;28.83;24.38;;;11.40;99.90;;;;;;5092732;28;20219;-66
2021/10/29 01:59:23;;;;;;;26.60;23.70;;;11.40;99.90;;;;;;5092091;28;20223;-66
2021/10/29 02:01:50;;;;;;;27.23;22.10;;;11.40;99.90;;;;;;5092502;28;20539;-66
2021/10/29 02:04:17;;;;;;;28.02;24.48;;;11.40;99.90;;;;;;5092530;28;20258;-66
2021/10/29 02:06:44;;;;;;;27.38;23.67;;;11.30;99.90;;;;;;5092112;28;20586;-66
2021/10/29 02:09:11;;;;;;;26.40;23.30;;;11.30;99.90;;;;;;5092596;28;20606;-66
2021/10/29 02:11:39;;;;;;;30.65;23.20;;;11.30;99.90;;;;;;5092178;28;20238;-67
2021/10/29 02:14:07;;;;;;;27.98;24.95;;;11.30;99.90;;;;;;5092745;28;20237;-66
2021/10/29 02:16:35;;;;;;;34.42;25.65;;;11.20;99.90;;;;;;5089125;28;20764;-66
2021/10/29 02:19:02;;;;;;;28.15;24.65;;;11.20;99.90;;;;;;5092407;28;20219;-67
2021/10/29 02:21:29;;;;;;;27.55;23.45;;;11.20;99.90;;;;;;5091668;28;20242;-67
2021/10/29 02:23:57;;;;;;;29.15;23.10;;;11.20;99.90;;;;;;5092278;28;20246;-66
2021/10/29 02:26:24;;;;;;;31.75;24.52;;;11.20;99.90;;;;;;5092370;28;20223;-67
2021/10/29 02:28:51;;;;;;;25.92;23.20;;;11.30;99.90;;;;;;5092235;28;20664;-66
2021/10/29 02:31:19;;;;;;;28.70;22.13;;;11.30;99.90;;;;;;5080733;28;20219;-66
2021/10/29 02:33:46;;;;;;;25.13;21.67;;;11.30;99.90;;;;;;5086012;28;20243;-65
2021/10/29 02:36:13;;;;;;;29.00;25.95;;;11.30;99.90;;;;;;5092511;28;20230;-66
2021/10/29 02:38:40;;;;;;;28.77;23.95;;;11.30;99.90;;;;;;5091762;28;20708;-66
2021/10/29 02:41:07;;;;;;;28.35;22.95;;;11.40;99.90;;;;;;5092428;28;20689;-64
2021/10/29 02:43:35;;;;;;;26.13;23.42;;;11.40;99.90;;;;;;5090556;28;20220;-67
2021/10/29 02:46:01;;;;;;;27.80;23.17;;;11.30;99.90;;;;;;5085514;28;20344;-67
2021/10/29 02:48:30;;;;;;;27.58;24.13;;;11.40;99.90;;;;;;5091939;28;20673;-67
2021/10/29 02:50:58;;;;;;;28.98;24.52;;;11.40;99.90;;;;;;5091885;28;20657;-66
2021/10/29 02:53:25;;;;;;;29.27;25.83;;;11.40;99.90;;;;;;5091939;28;20227;-67
2021/10/29 02:55:52;;;;;;;29.27;24.98;;;11.40;99.90;;;;;;5091976;28;20230;-67
2021/10/29 02:58:19;;;;;;;28.20;23.98;;;11.40;99.90;;;;;;5092120;28;20230;-66
2021/10/29 03:00:45;;;;;;;28.92;24.65;;;11.30;99.90;;;;;;5091719;28;20731;-67
2021/10/29 03:03:12;;;;;;;30.90;22.95;;;11.30;99.90;;;;;;5092119;28;20224;-67
2021/10/29 03:05:41;;;;;;;29.85;25.45;;;11.40;99.90;;;;;;5091677;28;20231;-66
2021/10/29 03:08:08;;;;;;;26.92;23.60;;;11.40;99.90;;;;;;5092034;28;20380;-66
2021/10/29 03:10:35;;;;;;;30.33;24.40;;;11.40;99.90;;;;;;5091553;28;20227;-66
2021/10/29 03:13:02;;;;;;;30.38;24.90;;;11.30;99.90;;;;;;5092221;28;20696;-67
2021/10/29 03:15:29;;;;;;;28.48;24.27;;;11.30;99.90;;;;;;5088620;28;20231;-67
2021/10/29 03:17:57;;;;;;;28.13;23.92;;;11.30;99.90;;;;;;5091876;28;20322;-66
2021/10/29 03:20:24;;;;;;;29.95;24.85;;;11.30;99.90;;;;;;5091988;28;20551;-66
2021/10/29 03:22:53;;;;;;;26.48;23.05;;;11.30;99.90;;;;;;5091465;28;20303;-69
2021/10/29 03:25:20;;;;;;;28.90;24.50;;;11.30;99.90;;;;;;5091803;28;20542;-68
2021/10/29 03:27:47;;;;;;;29.60;24.08;;;11.30;99.90;;;;;;5091437;28;20588;-67
2021/10/29 03:30:14;;;;;;;29.98;25.20;;;11.20;99.90;;;;;;5091830;28;20227;-67
2021/10/29 03:32:41;;;;;;;31.50;24.58;;;11.20;99.90;;;;;;5087647;28;20630;-67
2021/10/29 03:35:08;;;;;;;29.67;26.30;;;11.20;99.90;;;;;;5095546;28;20220;-67
2021/10/29 03:40:26;;;;;;;34.33;27.30;;;11.10;99.90;;;;;;5094187;28;20238;-67
2021/10/29 03:43:03;;;;;;;30.48;27.05;;;11.10;99.90;;;;;;5090817;28;20230;-67
2021/10/29 03:45:30;;;;;;;31.55;26.15;;;11.00;99.90;;;;;;5092466;28;20548;-67
2021/10/29 03:47:59;;;;;;;27.05;23.52;;;11.00;99.90;;;;;;5092320;28;20727;-67
2021/10/29 03:50:30;;;;;;;25.27;22.08;;;11.00;99.90;;;;;;5092790;28;20235;-67
2021/10/29 03:53:01;;;;;;;31.77;24.73;;;11.10;99.90;;;;;;5091838;28;20314;-66
2021/10/29 03:55:34;;;;;;;28.05;23.13;;;11.00;99.90;;;;;;5092183;28;20234;-66
2021/10/29 03:58:01;;;;;;;27.20;22.27;;;11.00;99.90;;;;;;5092911;28;20215;-66
2021/10/29 04:00:30;;;;;;;26.77;23.00;;;10.90;99.90;;;;;;5093989;28;20585;-65
2021/10/29 04:03:00;;;;;;;23.73;21.17;;;10.90;99.90;;;;;;5094576;28;20311;-65
2021/10/29 04:05:28;;;;;;;26.48;22.65;;;10.90;99.90;;;;;;5081651;28;20269;-66
2021/10/29 04:07:56;;;;;;;27.77;24.75;;;10.90;99.90;;;;;;5094579;28;20247;-66
2021/10/29 04:10:26;;;;;;;31.25;23.40;;;10.90;99.90;;;;;;5081550;28;20223;-66
2021/10/29 04:12:56;;;;;;;27.10;23.35;;;10.90;99.90;;;;;;5094471;28;20622;-65
2021/10/29 04:15:23;;;;;;;29.35;23.60;;;10.90;99.90;;;;;;5094823;28;20226;-66
2021/10/29 04:17:51;;;;;;;29.90;24.27;;;10.90;99.90;;;;;;5094350;28;20222;-66
2021/10/29 04:20:18;;;;;;;28.33;23.52;;;10.80;99.90;;;;;;5093760;28;20234;-66
2021/10/29 04:22:45;;;;;;;25.35;22.23;;;10.90;99.90;;;;;;5082714;28;20289;-65
2021/10/29 04:25:12;;;;;;;28.77;23.48;;;10.90;99.90;;;;;;5094251;28;20577;-66
2021/10/29 04:27:44;;;;;;;26.35;22.13;;;10.80;99.90;;;;;;5087177;28;20227;-66
2021/10/29 04:30:16;;;;;;;28.65;23.95;;;10.90;99.90;;;;;;5094544;28;20538;-66
2021/10/29 04:32:43;;;;;;;28.70;21.95;;;10.90;99.90;;;;;;5085582;28;20235;-66
2021/10/29 04:35:12;;;;;;;26.60;21.98;;;10.90;99.90;;;;;;5091256;28;20246;-66
2021/10/29 04:37:41;;;;;;;27.48;21.92;;;10.90;99.90;;;;;;5094291;28;20568;-66
2021/10/29 04:40:09;;;;;;;29.70;23.60;;;10.90;99.90;;;;;;5089859;28;21025;-66
2021/10/29 04:42:36;;;;;;;30.70;22.63;;;10.80;99.90;;;;;;5079112;28;20224;-66
2021/10/29 04:45:05;;;;;;;29.77;23.70;;;10.80;99.90;;;;;;5091491;28;20229;-66
2021/10/29 04:47:33;;;;;;;26.83;22.33;;;10.80;99.90;;;;;;5094130;28;20247;-65
2021/10/29 04:50:01;;;;;;;27.52;23.38;;;10.90;99.90;;;;;;5093182;28;20239;-65
2021/10/29 04:52:28;;;;;;;27.02;23.92;;;10.80;99.90;;;;;;5092922;28;20211;-66
2021/10/29 04:54:56;;;;;;;25.20;21.85;;;10.80;99.90;;;;;;5084399;28;20227;-66
2021/10/29 04:57:23;;;;;;;27.92;23.38;;;10.80;99.90;;;;;;5074059;28;20307;-66
2021/10/29 04:59:50;;;;;;;30.10;25.77;;;10.70;99.90;;;;;;5073585;28;20551;-66
2021/10/29 05:02:16;;;;;;;29.85;24.23;;;10.70;99.90;;;;;;5073832;28;20216;-66
2021/10/29 05:04:45;;;;;;;31.88;25.95;;;10.60;99.90;;;;;;5073932;28;20220;-66
2021/10/29 05:07:12;;;;;;;34.85;28.13;;;10.60;99.90;;;;;;5073629;28;20220;-66
2021/10/29 05:09:39;;;;;;;27.67;22.98;;;10.60;99.90;;;;;;5073541;28;20243;-66
2021/10/29 05:12:06;;;;;;;30.13;24.85;;;10.60;99.90;;;;;;5073282;28;20232;-66
2021/10/29 05:14:33;;;;;;;30.85;23.73;;;10.60;99.90;;;;;;5073707;28;20231;-66
2021/10/29 05:17:00;;;;;;;33.65;26.02;;;10.50;99.90;;;;;;5073302;28;20238;-66
2021/10/29 05:19:27;;;;;;;28.90;24.52;;;10.50;99.90;;;;;;5073307;28;20224;-67
2021/10/29 05:21:55;;;;;;;28.23;24.88;;;10.50;99.90;;;;;;5072881;28;20238;-67
2021/10/29 05:24:23;;;;;;;25.67;22.42;;;10.50;99.90;;;;;;5073303;28;20235;-66
2021/10/29 05:26:50;;;;;;;28.08;22.50;;;10.50;99.90;;;;;;5073093;28;20231;-66
2021/10/29 05:29:17;;;;;;;28.50;24.17;;;10.50;99.90;;;;;;5073233;28;20227;-66
2021/10/29 05:31:48;;;;;;;28.02;23.08;;;10.40;99.90;;;;;;5073229;28;20701;-67
2021/10/29 05:34:15;;;;;;;39.58;29.80;;;10.40;99.90;;;;;;5085002;28;20338;-67
2021/10/29 05:36:42;;;;;;;33.03;29.45;;;10.40;99.90;;;;;;5093357;28;20231;-67
2021/10/29 05:39:10;;;;;;;34.67;26.05;;;10.30;99.90;;;;;;5092965;28;20676;-67
2021/10/29 05:41:38;;;;;;;33.03;25.92;;;10.30;99.90;;;;;;5093641;28;20565;-67
2021/10/29 05:44:05;;;;;;;32.08;24.80;;;10.30;99.90;;;;;;5092692;28;20229;-67
2021/10/29 05:46:32;;;;;;;28.60;24.90;;;10.30;99.90;;;;;;5093244;28;20231;-67
2021/10/29 05:49:00;;;;;;;27.00;22.83;;;10.30;99.90;;;;;;5092846;28;20288;-67
2021/10/29 05:51:27;;;;;;;26.33;23.40;;;10.30;99.90;;;;;;5093299;28;20226;-66
2021/10/29 05:54:08;;;;;;;25.60;20.63;;;10.40;99.90;;;;;;5092307;28;20231;-67
2021/10/29 05:56:36;;;;;;;28.13;21.83;;;10.40;99.90;;;;;;5093241;28;20227;-67
2021/10/29 05:59:05;;;;;;;26.42;23.33;;;10.30;99.90;;;;;;5092442;28;20223;-67
2021/10/29 06:01:33;;;;;;;27.17;22.25;;;10.30;99.90;;;;;;5093153;28;20227;-67
2021/10/29 06:04:00;;;;;;;23.95;20.40;;;10.30;99.90;;;;;;5092755;28;20230;-67
2021/10/29 06:06:27;;;;;;;26.55;21.05;;;10.30;99.90;;;;;;5092870;28;20238;-67
2021/10/29 06:08:54;;;;;;;26.63;21.70;;;10.30;99.90;;;;;;5092208;28;20227;-67
2021/10/29 06:11:26;;;;;;;23.58;20.70;;;10.30;99.90;;;;;;5093097;28;20693;-68
2021/10/29 06:13:54;;;;;;;29.15;23.35;;;10.40;99.90;;;;;;5092885;28;20254;-67
2021/10/29 06:16:21;;;;;;;27.08;23.77;;;10.30;99.90;;;;;;5092469;28;20215;-67
2021/10/29 06:18:49;;;;;;;30.52;25.27;;;10.30;99.90;;;;;;5092908;28;20219;-67
2021/10/29 06:21:18;;;;;;;29.92;24.38;;;10.30;99.90;;;;;;5092292;28;20229;-67
2021/10/29 06:23:55;;;;;;;28.85;22.67;;;10.20;99.90;;;;;;5092602;28;20242;-67
2021/10/29 06:26:24;;;;;;;28.15;22.20;;;10.30;99.90;;;;;;5092372;28;20309;-67
2021/10/29 06:28:51;;;;;;;28.77;22.23;;;10.30;99.90;;;;;;5092656;28;20284;-67
2021/10/29 06:31:20;;;;;;;29.67;24.23;;;10.30;99.90;;;;;;5092161;28;20656;-67
2021/10/29 06:33:47;;;;;;;38.83;28.55;;;10.20;99.90;;;;;;5092538;28;20220;-68
2021/10/29 06:36:15;;;;;;;35.67;27.42;;;10.30;99.90;;;;;;5092185;28;20227;-67
2021/10/29 06:38:43;;;;;;;37.95;31.35;;;10.20;99.90;;;;;;5092673;28;20219;-67
2021/10/29 06:41:10;;;;;;;37.00;27.25;;;10.20;99.90;;;;;;5092186;28;20388;-66
2021/10/29 06:43:41;;;;;;;26.85;22.02;;;10.10;99.90;;;;;;5092654;28;20234;-66
2021/10/29 06:46:15;;;;;;;27.88;22.45;;;10.10;99.90;;;;;;5092063;28;20685;-67
2021/10/29 06:48:52;;;;;;;29.15;23.65;;;10.10;99.90;;;;;;5092416;28;20232;-67
2021/10/29 06:59:50;;;;;;;27.65;21.13;;;10.10;99.90;;;;;;5092724;28;20684;-67
2021/10/29 07:02:40;;;;;;;32.30;23.88;;;10.10;99.90;;;;;;5092847;28;20211;-67
2021/10/29 07:40:48;;;;;;;28.85;22.05;;;10.60;99.90;;;;;;5075032;28;20282;-67
2021/10/29 07:43:25;;;;;;;31.52;22.65;;;10.60;99.90;;;;;;5086726;28;20239;-67
2021/10/29 07:45:52;;;;;;;27.38;22.70;;;10.60;99.90;;;;;;5095363;28;20235;-66
2021/10/29 07:48:18;;;;;;;26.83;22.90;;;10.70;99.90;;;;;;5095481;28;20219;-67
2021/10/29 07:50:46;;;;;;;30.05;22.48;;;10.70;99.90;;;;;;5095032;28;20223;-67
2021/10/29 07:53:14;;;;;;;34.05;25.05;;;10.70;99.90;;;;;;5095414;28;20211;-67
2021/10/29 07:55:41;;;;;;;32.15;24.73;;;10.70;99.90;;;;;;5095030;28;20230;-67
2021/10/29 07:58:08;;;;;;;32.35;25.42;;;10.80;99.90;;;;;;5095357;28;20216;-66
2021/10/29 08:00:35;;;;;;;30.67;21.63;;;10.80;99.90;;;;;;5095087;28;20231;-67
2021/10/29 08:03:05;;;;;;;29.50;24.52;;;10.80;99.90;;;;;;5094343;27;20215;-67
2021/10/29 08:05:32;;;;;;;37.00;30.38;;;10.90;99.90;;;;;;5095165;27;20231;-66
2021/10/29 08:08:00;;;;;;;30.60;26.27;;;10.90;99.90;;;;;;5094639;27;21666;-67
2021/10/29 08:10:29;;;;;;;37.45;29.15;;;10.90;99.90;;;;;;5090915;27;20285;-67
2021/10/29 08:12:56;;;;;;;28.30;24.85;;;10.90;99.90;;;;;;5073985;28;20307;-67
2021/10/29 08:15:23;;;;;;;25.90;22.80;;;10.90;99.90;;;;;;5074541;28;20704;-67
2021/10/29 08:17:50;;;;;;;28.15;22.52;;;11.00;99.90;;;;;;5073988;28;20224;-67
2021/10/29 08:20:17;;;;;;;27.60;22.40;;;11.00;99.90;;;;;;5074671;28;20232;-67
2021/10/29 08:22:45;;;;;;;28.20;21.67;;;11.10;99.90;;;;;;5074532;28;20581;-68
2021/10/29 08:25:13;;;;;;;27.05;22.65;;;11.10;99.90;;;;;;5074335;28;20231;-67
2021/10/29 08:27:41;;;;;;;26.77;23.95;;;11.20;99.90;;;;;;5074648;28;20227;-67
2021/10/29 08:30:09;;;;;;;27.52;24.10;;;11.20;99.90;;;;;;5073822;28;20317;-67
2021/10/29 08:32:37;;;;;;;30.02;22.88;;;11.30;99.90;;;;;;5074187;28;20223;-67
2021/10/29 08:35:05;;;;;;;24.55;20.75;;;11.40;99.90;;;;;;5092221;28;20219;-67
2021/10/29 08:37:33;;;;;;;21.35;19.15;;;11.50;99.90;;;;;;5094716;28;20280;-67
2021/10/29 08:40:00;;;;;;;27.60;19.27;;;11.60;99.90;;;;;;5093427;28;20237;-67
2021/10/29 08:42:27;;;;;;;22.83;17.88;;;11.60;99.90;;;;;;5094531;28;20219;-67
2021/10/29 08:44:55;;;;;;;21.92;18.75;;;11.60;99.90;;;;;;5093988;28;20223;-67
2021/10/29 08:47:24;;;;;;;22.08;19.08;;;11.70;99.90;;;;;;5094429;28;20230;-67
2021/10/29 08:49:51;;;;;;;22.42;18.40;;;11.70;99.90;;;;;;5093851;28;20592;-67
2021/10/29 08:52:22;;;;;;;24.88;22.23;;;11.80;99.90;;;;;;5094510;28;20254;-65
2021/10/29 08:54:50;;;;;;;28.17;23.65;;;11.90;99.90;;;;;;5093874;28;20689;-67
2021/10/29 08:57:17;;;;;;;29.75;22.35;;;12.00;99.90;;;;;;5094122;28;20746;-66
2021/10/29 08:59:49;;;;;;;22.15;19.50;;;12.00;99.90;;;;;;5094299;28;20223;-66
2021/10/29 09:02:21;;;;;;;27.58;20.15;;;12.10;99.90;;;;;;5093996;28;20663;-66
2021/10/29 09:04:52;;;;;;;22.88;18.73;;;12.10;99.90;;;;;;5094106;28;20685;-66
2021/10/29 09:32:29;;;;;;;22.15;19.83;;;12.60;99.90;;;;;;5093592;28;20237;-66
2021/10/29 09:35:08;;;;;;;23.50;20.17;;;12.60;99.90;;;;;;5093189;28;20230;-66
2021/10/29 09:37:55;;;;;;;20.73;17.80;;;12.60;99.90;;;;;;5093598;28;20223;-66
2021/10/29 09:40:22;;;;;;;22.10;19.90;;;12.70;99.90;;;;;;5093359;28;20219;-66
2021/10/29 09:42:50;;;;;;;19.42;17.42;;;12.70;99.90;;;;;;5093082;28;20224;-66
2021/10/29 09:45:21;;;;;;;20.00;17.73;;;12.80;99.90;;;;;;5093306;28;20219;-67
2021/10/29 09:47:56;;;;;;;18.70;16.77;;;12.90;99.90;;;;;;5093057;28;20215;-66
2021/10/29 09:50:33;;;;;;;20.45;18.35;;;13.00;99.90;;;;;;5093069;28;20226;-65
2021/10/29 09:53:10;;;;;;;21.08;18.90;;;13.10;99.90;;;;;;5093449;28;20215;-66
2021/10/29 09:55:51;;;;;;;23.38;18.50;;;13.00;99.70;;;;;;5092661;28;20979;-66
2021/10/29 09:58:20;;;;;;;27.38;20.65;;;13.10;99.80;;;;;;5092690;28;20268;-66
2021/10/29 10:00:48;;;;;;;29.45;24.95;;;13.20;99.90;;;;;;5093050;28;20219;-66
2021/10/29 10:03:17;;;;;;;26.88;23.75;;;13.30;99.60;;;;;;5092608;28;20306;-67
2021/10/29 10:05:46;;;;;;;24.75;22.13;;;13.30;99.40;;;;;;5092740;28;20246;-67
2021/10/29 10:08:14;;;;;;;22.57;20.00;;;13.40;99.50;;;;;;5092957;28;20223;-67
2021/10/29 10:10:45;;;;;;;23.48;20.98;;;13.40;99.60;;;;;;5092353;28;20458;-67
2021/10/29 10:13:13;;;;;;;29.25;21.95;;;13.50;99.60;;;;;;5092766;28;20238;-67
2021/10/29 10:15:41;;;;;;;28.55;23.98;;;13.60;99.60;;;;;;5092598;28;20238;-67
2021/10/29 10:18:08;;;;;;;26.97;24.03;;;13.60;99.50;;;;;;5092709;28;20219;-66
2021/10/29 10:20:35;;;;;;;32.80;26.87;;;13.60;99.50;;;;;;5092166;28;20476;-66
2021/10/29 10:23:07;;;;;;;25.65;22.90;;;13.70;99.60;;;;;;5092733;28;20976;-66
2021/10/29 10:25:54;;;;;;;20.38;17.65;;;13.80;99.50;;;;;;5092281;28;20616;-67
2021/10/29 10:43:15;;;;;;;22.73;20.40;;;14.10;98.60;;;;;;5071287;28;20563;-66
2021/10/29 10:45:50;;;;;;;25.10;21.30;;;14.20;98.60;;;;;;5096825;28;20472;-67
2021/10/29 10:48:23;;;;;;;25.00;20.63;;;14.20;98.70;;;;;;5096396;28;20536;-66
2021/10/29 10:50:53;;;;;;;27.57;21.27;;;14.30;98.80;;;;;;5096803;28;20639;-67
2021/10/29 10:53:28;;;;;;;20.53;18.33;;;14.30;98.30;;;;;;5096001;28;20468;-67
2021/10/29 10:56:09;;;;;;;21.60;17.50;;;14.40;98.40;;;;;;5096714;28;20800;-67
2021/10/29 10:58:52;;;;;;;27.27;22.63;;;14.40;98.30;;;;;;5096705;28;20951;-67
2021/10/29 11:01:44;;;;;;;19.03;17.00;;;14.40;98.10;;;;;;5096900;28;20569;-66
2021/10/29 11:07:14;;;;;;;21.67;19.30;;;14.50;97.90;;;;;;5095937;28;20468;-66
2021/10/29 11:10:00;;;;;;;21.37;19.03;;;14.50;97.90;;;;;;5096019;28;20484;-66
2021/10/29 11:13:04;;;;;;;18.93;17.03;;;14.60;97.80;;;;;;5096215;28;20855;-66
2021/10/29 11:15:31;;;;;;;19.83;17.83;;;14.70;97.90;;;;;;5095935;28;20457;-66
2021/10/29 11:18:00;;;;;;;23.73;20.97;;;14.70;98.20;;;;;;5096120;28;20461;-66
2021/10/29 11:20:46;;;;;;;25.00;19.80;;;14.80;97.80;;;;;;5095771;28;20548;-65
2021/10/29 11:23:19;;;;;;;21.90;19.70;;;14.90;97.60;;;;;;5095809;28;20453;-66
2021/10/29 11:26:00;;;;;;;21.63;19.33;;;14.90;97.40;;;;;;5095472;28;20485;-66
2021/10/29 11:28:33;;;;;;;22.73;20.03;;;14.90;97.20;;;;;;5095543;28;20480;-66
2021/10/29 11:31:00;;;;;;;21.70;18.30;;;15.00;97.20;;;;;;5095654;28;20461;-67
2021/10/29 11:33:28;;;;;;;24.27;21.67;;;15.00;97.00;;;;;;5095324;28;20892;-66
2021/10/29 11:36:01;;;;;;;24.50;20.27;;;15.00;97.00;;;;;;5095824;28;20468;-66
2021/10/29 11:38:29;;;;;;;20.97;18.67;;;14.90;96.90;;;;;;5095178;28;20465;-67
2021/10/29 11:40:57;;;;;;;21.83;17.77;;;15.00;97.00;;;;;;5095765;28;20473;-67
2021/10/29 11:43:27;;;;;;;22.23;18.10;;;15.10;97.10;;;;;;5095200;28;21104;-66
2021/10/29 11:45:55;;;;;;;19.93;18.03;;;15.10;96.80;;;;;;5095481;28;20469;-67
2021/10/29 11:48:22;;;;;;;20.53;18.43;;;15.20;96.90;;;;;;5095622;28;20473;-67
2021/10/29 11:51:03;;;;;;;23.37;19.63;;;15.20;97.00;;;;;;5094979;28;20544;-67
2021/10/29 11:53:32;;;;;;;22.43;17.30;;;15.30;97.20;;;;;;5094170;28;20484;-67
2021/10/29 11:56:04;;;;;;;20.60;18.27;;;15.30;97.30;;;;;;5095424;28;20474;-66
2021/10/29 11:58:43;;;;;;;18.57;16.60;;;15.30;97.20;;;;;;5094911;28;20470;-67
2021/10/29 12:01:26;;;;;;;17.60;15.80;;;15.40;97.30;;;;;;5095532;28;20537;-66
2021/10/29 12:09:27;;;;;;;20.00;17.93;;;15.50;96.90;;;;;;5087387;28;20472;-67
2021/10/29 12:11:56;;;;;;;21.13;18.70;;;15.50;96.60;;;;;;5094527;28;20457;-67
2021/10/29 12:14:31;;;;;;;22.90;18.90;;;15.50;96.30;;;;;;5095183;28;20465;-66
2021/10/29 12:17:15;;;;;;;18.53;16.60;;;15.40;95.90;;;;;;5094951;28;20811;-68
2021/10/29 12:19:46;;;;;;;21.80;18.20;;;15.40;96.00;;;;;;5094421;28;20985;-67
2021/10/29 12:22:26;;;;;;;19.10;17.10;;;15.50;96.20;;;;;;5091074;28;20474;-67
2021/10/29 12:24:58;;;;;;;18.63;16.70;;;15.60;96.30;;;;;;5074066;28;20474;-66
2021/10/29 12:27:29;;;;;;;21.63;19.40;;;15.60;96.20;;;;;;5074724;28;20952;-67
2021/10/29 12:30:26;;;;;;;21.93;19.80;;;15.70;96.10;;;;;;5074105;28;20493;-67
2021/10/29 12:39:11;;;;;;;20.73;17.93;;;15.70;95.80;;;;;;5094745;28;20456;-66
2021/10/29 12:53:22;;;;;;;24.70;21.10;;;15.90;95.70;;;;;;5094451;28;20570;-66
2021/10/29 12:59:03;;;;;;;21.27;19.10;;;15.90;95.40;;;;;;5094043;28;20971;-67
2021/10/29 13:01:36;;;;;;;19.90;17.90;;;15.90;95.30;;;;;;5094252;28;20461;-67
2021/10/29 13:04:07;;;;;;;20.27;18.37;;;15.90;95.30;;;;;;5093016;28;20454;-66
2021/10/29 13:06:38;;;;;;;21.20;19.23;;;16.00;95.30;;;;;;5093935;28;20499;-67
2021/10/29 13:09:14;;;;;;;21.97;18.77;;;16.00;95.30;;;;;;5093561;28;20496;-67
2021/10/29 13:11:47;;;;;;;22.23;20.03;;;16.00;95.30;;;;;;5093648;28;20462;-67
2021/10/29 13:14:17;;;;;;;22.73;18.93;;;16.00;95.10;;;;;;5093967;28;20457;-67
2021/10/29 13:16:43;;;;;;;22.07;19.60;;;16.00;95.10;;;;;;5093367;28;20480;-67
2021/10/29 13:19:30;;;;;;;23.03;20.73;;;16.00;95.00;;;;;;5093803;28;20465;-67
2021/10/29 13:52:57;;;;;;;17.47;15.67;;;16.00;95.00;;;;;;5093010;28;20460;-67
2021/10/29 13:58:30;;;;;;;16.30;14.60;;;16.10;95.40;;;;;;5083975;28;20562;-67
2021/10/29 14:01:16;;;;;;;19.40;17.30;;;16.10;95.40;;;;;;5077744;28;20462;-66
2021/10/29 14:28:44;;;;;;;18.30;16.50;;;16.10;95.00;;;;;;5072539;28;20527;-66
2021/10/29 14:31:16;;;;;;;16.03;14.53;;;16.00;94.90;;;;;;5072293;28;20469;-66
2021/10/29 14:33:48;;;;;;;20.53;18.47;;;16.00;95.00;;;;;;5079638;28;20492;-66
2021/10/29 14:36:17;;;;;;;20.73;18.53;;;16.00;95.10;;;;;;5092370;28;21557;-66
2021/10/29 14:38:54;;;;;;;21.67;18.53;;;16.00;95.20;;;;;;5092572;28;20457;-67
2021/10/29 14:41:27;;;;;;;27.63;19.10;;;16.00;95.30;;;;;;5092399;28;20459;-66
2021/10/29 14:43:57;;;;;;;19.33;17.33;;;15.90;95.40;;;;;;5092398;28;20461;-66
2021/10/29 14:46:37;;;;;;;18.23;16.37;;;15.90;95.40;;;;;;5092280;28;21280;-66
2021/10/29 14:49:11;;;;;;;20.17;18.27;;;15.90;95.60;;;;;;5092107;28;20826;-66
2021/10/29 15:03:03;;;;;;;20.33;18.33;;;15.60;95.90;;;;;;5092623;28;20806;-66
2021/10/29 15:27:35;;;;;;;20.00;18.00;;;15.60;96.50;;;;;;5088226;28;20523;-66
2021/10/29 15:30:05;;;;;;;20.57;18.47;;;15.60;96.70;;;;;;5095509;28;20480;-67
2021/10/29 15:43:50;;;;;;;19.43;17.50;;;15.50;96.40;;;;;;5090277;28;20468;-67
2021/10/29 15:46:19;;;;;;;22.73;19.53;;;15.50;96.50;;;;;;5095970;28;20544;-66
2021/10/29 15:48:52;;;;;;;19.53;17.67;;;15.40;96.40;;;;;;5095377;28;20802;-67
2021/10/29 15:51:19;;;;;;;21.00;18.87;;;15.40;96.40;;;;;;5095484;28;20466;-66
2021/10/29 15:53:46;;;;;;;21.77;19.57;;;15.40;96.70;;;;;;5095039;28;20462;-66
2021/10/29 15:56:25;;;;;;;23.73;21.40;;;15.40;96.80;;;;;;5095588;28;20815;-66
2021/10/29 15:58:59;;;;;;;23.13;20.30;;;15.40;96.80;;;;;;5094931;28;21132;-67
2021/10/29 16:01:34;;;;;;;22.23;20.13;;;15.30;97.00;;;;;;5095432;28;20497;-67
2021/10/29 16:17:00;;;;;;;22.23;20.13;;;15.30;97.20;;;;;;5095289;28;21571;-67
2021/10/29 16:17:50;;;;;;;24.63;22.23;;;15.00;97.80;;;;;;5095095;28;20488;-68
2021/10/29 16:20:18;;;;;;;21.57;19.47;;;15.00;98.00;;;;;;5094937;28;20475;-67
2021/10/29 16:22:45;;;;;;;23.27;21.13;;;14.90;98.10;;;;;;5094456;28;21136;-66
2021/10/29 16:25:15;;;;;;;21.80;19.00;;;14.90;98.30;;;;;;5094809;28;20465;-65
2021/10/29 16:27:49;;;;;;;24.73;22.27;;;14.80;98.40;;;;;;5094413;28;20465;-67
2021/10/29 16:30:17;;;;;;;22.60;20.43;;;14.80;98.60;;;;;;5094767;28;20902;-67
2021/10/29 16:35:26;;;;;;;24.13;21.63;;;14.70;98.80;;;;;;5073269;28;20458;-67